TimeCDT,TemperatureF,Dew PointF,Humidity,Sea Level PressureIn,VisibilityMPH,Wind Direction,Wind SpeedMPH,Gust SpeedMPH,PrecipitationIn,Events,Conditions,WindDirDegrees,DateUTC
12:53 AM,34.0,24.1,67,30.15,10.0,NNW,8.1,-,N/A,,Overcast,340,2011-10-19 05:53:00
1:53 AM,35.1,25.0,67,30.15,10.0,North,9.2,-,N/A,,Overcast,350,2011-10-19 06:53:00
2:14 AM,35.6,24.8,65,30.10,10.0,North,9.2,-,N/A,,Overcast,350,2011-10-19 07:14:00
2:53 AM,34.0,26.1,73,30.16,10.0,North,8.1,-,N/A,,Overcast,350,2011-10-19 07:53:00
3:14 AM,33.8,26.6,75,30.11,10.0,North,8.1,-,N/A,,Overcast,350,2011-10-19 08:14:00
3:53 AM,34.0,26.1,73,30.16,10.0,NNW,5.8,-,N/A,,Overcast,330,2011-10-19 08:53:00
4:53 AM,34.0,28.0,79,30.17,10.0,North,11.5,-,N/A,,Overcast,350,2011-10-19 09:53:00
5:51 AM,33.8,28.4,81,30.14,10.0,NNW,8.1,-,N/A,,Overcast,340,2011-10-19 10:51:00
5:53 AM,33.1,28.9,85,30.19,10.0,North,8.1,-,N/A,,Overcast,350,2011-10-19 10:53:00
6:53 AM,34.0,28.9,82,30.20,10.0,Variable,5.8,-,N/A,,Overcast,0,2011-10-19 11:53:00
7:53 AM,34.0,28.9,82,30.21,10.0,North,9.2,-,N/A,,Overcast,360,2011-10-19 12:53:00
8:00 AM,33.8,28.4,81,30.15,10.0,North,9.2,-,N/A,,Overcast,10,2011-10-19 13:00:00
8:53 AM,34.0,28.9,82,30.22,10.0,North,11.5,-,N/A,,Overcast,10,2011-10-19 13:53:00
9:53 AM,35.6,28.4,75,30.17,10.0,North,11.5,-,N/A,,Overcast,10,2011-10-19 14:53:00
10:35 AM,37.4,28.4,70,30.18,10.0,North,8.1,-,N/A,,Mostly Cloudy,10,2011-10-19 15:35:00
10:53 AM,37.4,28.4,70,30.18,10.0,North,10.4,-,N/A,,Overcast,10,2011-10-19 15:53:00
11:53 AM,39.0,28.9,67,30.23,10.0,ENE,8.1,-,N/A,,Overcast,60,2011-10-19 16:53:00
12:20 PM,41.0,28.4,61,30.18,10.0,ENE,6.9,-,N/A,,Scattered Clouds,70,2011-10-19 17:20:00
12:45 PM,42.8,30.2,61,30.18,10.0,North,10.4,-,N/A,,Mostly Cloudy,350,2011-10-19 17:45:00
12:53 PM,41.0,28.9,62,30.22,10.0,North,10.4,-,N/A,,Mostly Cloudy,350,2011-10-19 17:53:00
1:22 PM,42.8,28.4,57,30.16,10.0,North,8.1,-,N/A,,Partly Cloudy,360,2011-10-19 18:22:00
1:53 PM,42.1,28.9,60,30.20,10.0,North,12.7,-,N/A,,Partly Cloudy,360,2011-10-19 18:53:00
2:53 PM,44.1,28.9,55,30.18,10.0,Variable,5.8,-,N/A,,Scattered Clouds,0,2011-10-19 19:53:00
3:53 PM,46.0,28.9,51,30.17,10.0,NNE,9.2,-,N/A,,Mostly Cloudy,20,2011-10-19 20:53:00
4:53 PM,43.0,28.9,58,30.18,10.0,NNE,10.4,-,N/A,,Overcast,30,2011-10-19 21:53:00
5:53 PM,42.1,28.9,60,30.18,10.0,NNE,6.9,-,N/A,,Partly Cloudy,20,2011-10-19 22:53:00
6:53 PM,39.9,28.9,65,30.19,10.0,NNE,8.1,-,N/A,,Scattered Clouds,30,2011-10-19 23:53:00
7:53 PM,37.0,28.9,73,30.18,10.0,NE,4.6,-,N/A,,Clear,40,2011-10-20 00:53:00
8:53 PM,36.0,28.9,76,30.18,10.0,NNE,4.6,-,N/A,,Clear,20,2011-10-20 01:53:00
9:53 PM,35.1,28.9,78,30.18,10.0,NNE,4.6,-,N/A,,Clear,20,2011-10-20 02:53:00
10:53 PM,33.1,28.0,82,30.18,10.0,North,4.6,-,N/A,,Clear,10,2011-10-20 03:53:00
11:53 PM,33.1,28.0,82,30.16,10.0,Calm,Calm,-,N/A,,Clear,0,2011-10-20 04:53:00